createdAt,value
2016-12-28T00:00:51.474Z,0
2016-12-28T00:01:51.077Z,0
2016-12-28T00:02:51.663Z,0
2016-12-28T00:03:51.271Z,0
2016-12-28T00:04:51.746Z,0
2016-12-28T00:05:52.187Z,0
2016-12-28T00:06:51.444Z,0
2016-12-28T00:07:51.545Z,0
2016-12-28T00:08:51.894Z,0
2016-12-28T00:09:52.308Z,0
2016-12-28T00:10:51.260Z,0
2016-12-28T00:11:52.053Z,0
2016-12-28T00:12:51.713Z,0
2016-12-28T00:13:52.438Z,0
2016-12-28T00:14:52.477Z,0
2016-12-28T00:15:51.547Z,0
2016-12-28T00:16:51.661Z,0
2016-12-28T00:17:51.441Z,0
2016-12-28T00:18:52.086Z,0
2016-12-28T00:19:51.407Z,0
2016-12-28T00:20:51.526Z,0
2016-12-28T00:21:51.807Z,0
2016-12-28T00:22:51.529Z,0
2016-12-28T00:23:51.748Z,0
2016-12-28T00:24:52.414Z,0
2016-12-28T00:25:51.659Z,0
2016-12-28T00:26:51.513Z,0
2016-12-28T00:27:51.038Z,0
2016-12-28T00:28:52.085Z,0
2016-12-28T00:29:51.579Z,0
2016-12-28T00:30:51.420Z,0
2016-12-28T00:31:51.864Z,0
2016-12-28T00:32:51.277Z,0
2016-12-28T00:33:51.895Z,0
2016-12-28T00:34:51.407Z,0
2016-12-28T00:35:52.027Z,0
2016-12-28T00:36:51.596Z,0
2016-12-28T00:37:52.418Z,0
2016-12-28T00:38:51.849Z,0
2016-12-28T00:39:51.657Z,0
2016-12-28T00:40:51.898Z,0
2016-12-28T00:41:52.160Z,0
2016-12-28T00:42:51.591Z,0
2016-12-28T00:43:51.729Z,0
2016-12-28T00:44:51.972Z,0
2016-12-28T00:45:51.817Z,0
2016-12-28T00:46:52.500Z,0
2016-12-28T00:47:52.235Z,0
2016-12-28T00:48:51.963Z,0
2016-12-28T00:49:52.168Z,0
2016-12-28T00:50:52.838Z,0
2016-12-28T00:51:53.464Z,0
2016-12-28T00:52:52.995Z,0
2016-12-28T00:53:52.298Z,0
2016-12-28T00:54:52.083Z,0
2016-12-28T00:55:51.921Z,0
2016-12-28T00:56:51.697Z,0
2016-12-28T00:57:52.352Z,0
2016-12-28T00:58:52.571Z,0
2016-12-28T00:59:52.441Z,0
2016-12-28T01:00:52.357Z,0
2016-12-28T01:01:52.723Z,0
2016-12-28T01:02:52.302Z,0
2016-12-28T01:03:52.843Z,0
2016-12-28T01:04:52.278Z,0
2016-12-28T01:05:51.770Z,0
2016-12-28T01:06:51.894Z,0
2016-12-28T01:07:52.222Z,0
2016-12-28T01:08:52.739Z,0
2016-12-28T01:09:51.960Z,0
2016-12-28T01:10:52.108Z,0
2016-12-28T01:11:52.044Z,0
2016-12-28T01:12:53.211Z,0
2016-12-28T01:13:52.666Z,0
2016-12-28T01:14:52.316Z,0
2016-12-28T01:15:52.067Z,0
2016-12-28T01:16:52.431Z,0
2016-12-28T01:17:52.564Z,0
2016-12-28T01:18:53.466Z,0
2016-12-28T01:19:53.184Z,0
2016-12-28T01:20:52.237Z,0
2016-12-28T01:21:51.936Z,0
2016-12-28T01:22:52.485Z,0
2016-12-28T01:23:52.544Z,0
2016-12-28T01:24:52.967Z,0
2016-12-28T01:25:52.137Z,0
2016-12-28T01:26:52.651Z,0
2016-12-28T01:27:52.678Z,0
2016-12-28T01:28:52.932Z,0
2016-12-28T01:29:51.879Z,0
2016-12-28T01:30:52.283Z,0
2016-12-28T01:31:52.409Z,0
2016-12-28T01:32:52.627Z,0
2016-12-28T01:33:52.627Z,0
2016-12-28T01:34:53.203Z,0
2016-12-28T01:35:52.742Z,0
2016-12-28T01:36:53.240Z,0
2016-12-28T01:37:52.627Z,0
2016-12-28T01:38:53.475Z,0
2016-12-28T01:39:54.028Z,0
2016-12-28T01:40:52.484Z,0
2016-12-28T01:41:53.088Z,0
2016-12-28T01:42:53.519Z,0
2016-12-28T01:43:53.493Z,0
2016-12-28T01:44:52.745Z,0
2016-12-28T01:45:52.753Z,0
2016-12-28T01:46:52.697Z,0
2016-12-28T01:47:52.913Z,0
2016-12-28T01:48:52.383Z,0
2016-12-28T01:49:54.732Z,0
2016-12-28T01:50:53.074Z,0
2016-12-28T01:51:53.048Z,0
2016-12-28T01:52:54.431Z,0
2016-12-28T01:53:53.080Z,0
2016-12-28T01:54:53.500Z,0
2016-12-28T01:55:52.864Z,0
2016-12-28T01:56:53.268Z,0
2016-12-28T01:57:53.424Z,0
2016-12-28T01:58:53.004Z,0
2016-12-28T01:59:53.483Z,0
2016-12-28T02:00:52.998Z,0
2016-12-28T02:01:53.071Z,0
2016-12-28T02:02:53.187Z,0
2016-12-28T02:03:53.600Z,0
2016-12-28T02:04:53.837Z,0
2016-12-28T02:05:52.790Z,0
2016-12-28T02:06:53.973Z,0
2016-12-28T02:07:53.837Z,0
2016-12-28T02:08:54.162Z,0
2016-12-28T02:09:54.144Z,0
2016-12-28T02:10:55.309Z,0
2016-12-28T02:11:54.468Z,0
2016-12-28T02:12:52.913Z,0
2016-12-28T02:13:54.209Z,0
2016-12-28T02:14:53.620Z,0
2016-12-28T02:15:54.028Z,0
2016-12-28T02:16:53.896Z,0
2016-12-28T02:17:53.299Z,0
2016-12-28T02:18:53.110Z,0
2016-12-28T02:19:53.762Z,0
2016-12-28T02:20:53.261Z,0
2016-12-28T02:21:53.801Z,0
2016-12-28T02:22:53.777Z,0
2016-12-28T02:23:53.027Z,0
2016-12-28T02:24:54.466Z,0
2016-12-28T02:25:54.261Z,0
2016-12-28T02:26:53.184Z,0
2016-12-28T02:27:54.001Z,0
2016-12-28T02:28:53.479Z,0
2016-12-28T02:29:54.147Z,0
2016-12-28T02:30:54.161Z,0
2016-12-28T02:31:53.753Z,0
2016-12-28T02:32:53.669Z,0
2016-12-28T02:33:53.368Z,0
2016-12-28T02:34:53.817Z,0
2016-12-28T02:35:52.870Z,0
2016-12-28T02:36:53.836Z,0
2016-12-28T02:37:54.167Z,0
2016-12-28T02:38:53.836Z,0
2016-12-28T02:39:54.371Z,0
2016-12-28T02:40:54.618Z,0
2016-12-28T02:41:53.626Z,0
2016-12-28T02:42:53.878Z,0
2016-12-28T02:43:53.465Z,0
2016-12-28T02:44:53.483Z,0
2016-12-28T02:45:53.882Z,0
2016-12-28T02:46:53.931Z,0
2016-12-28T02:47:53.877Z,0
2016-12-28T02:48:53.490Z,0
2016-12-28T02:49:53.855Z,0
2016-12-28T02:50:53.719Z,0
2016-12-28T02:51:53.537Z,0
2016-12-28T02:52:54.195Z,0
2016-12-28T02:53:53.842Z,0
2016-12-28T02:54:54.062Z,0
2016-12-28T02:55:54.786Z,0
2016-12-28T02:56:54.377Z,0
2016-12-28T02:57:53.714Z,0
2016-12-28T02:58:54.764Z,0
2016-12-28T02:59:54.096Z,0
2016-12-28T03:00:54.340Z,0
2016-12-28T03:01:54.277Z,0
2016-12-28T03:02:54.316Z,0
2016-12-28T03:03:54.198Z,0
2016-12-28T03:04:53.739Z,0
2016-12-28T03:05:54.542Z,0
2016-12-28T03:06:53.611Z,0
2016-12-28T03:07:54.203Z,0
2016-12-28T03:08:53.789Z,0
2016-12-28T03:09:54.096Z,0
2016-12-28T03:10:54.430Z,0
2016-12-28T03:11:54.175Z,0
2016-12-28T03:12:54.902Z,0
2016-12-28T03:13:53.649Z,0
2016-12-28T03:14:54.530Z,0
2016-12-28T03:15:53.535Z,0
2016-12-28T03:16:53.973Z,0
2016-12-28T03:17:54.386Z,0
2016-12-28T03:18:54.778Z,0
2016-12-28T03:19:54.006Z,0
2016-12-28T03:20:55.111Z,0
2016-12-28T03:21:54.427Z,0
2016-12-28T03:22:54.011Z,0
2016-12-28T03:23:54.263Z,0
2016-12-28T03:24:54.027Z,0
2016-12-28T03:25:54.873Z,0
2016-12-28T03:26:54.028Z,0
2016-12-28T03:27:54.004Z,0
2016-12-28T03:28:53.843Z,0
2016-12-28T03:29:53.979Z,0
2016-12-28T03:30:54.395Z,0
2016-12-28T03:31:53.935Z,0
2016-12-28T03:32:54.338Z,0
2016-12-28T03:33:54.499Z,0
2016-12-28T03:34:54.725Z,0
2016-12-28T03:35:54.773Z,0
2016-12-28T03:36:54.090Z,0
2016-12-28T03:37:54.330Z,0
2016-12-28T03:38:53.712Z,0
2016-12-28T03:39:54.913Z,0
2016-12-28T03:40:55.362Z,0
2016-12-28T03:41:55.050Z,0
2016-12-28T03:42:54.394Z,0
2016-12-28T03:43:54.748Z,0
2016-12-28T03:44:54.834Z,0
2016-12-28T03:45:54.568Z,0
2016-12-28T03:46:54.078Z,0
2016-12-28T03:47:54.719Z,0
2016-12-28T03:48:54.575Z,0
2016-12-28T03:49:54.697Z,0
2016-12-28T03:50:54.441Z,0
2016-12-28T03:51:54.646Z,0
2016-12-28T03:52:55.621Z,0
2016-12-28T03:53:54.115Z,0
2016-12-28T03:54:54.797Z,0
2016-12-28T03:55:55.451Z,0
2016-12-28T03:56:54.933Z,0
2016-12-28T03:57:54.046Z,0
2016-12-28T03:58:54.629Z,0
2016-12-28T03:59:54.607Z,0
2016-12-28T04:00:55.103Z,0
2016-12-28T04:01:54.619Z,0
2016-12-28T04:02:54.932Z,0
2016-12-28T04:03:54.510Z,0
2016-12-28T04:04:55.443Z,0
2016-12-28T04:05:54.567Z,0
2016-12-28T04:06:56.060Z,0
2016-12-28T04:07:54.642Z,0
2016-12-28T04:08:54.597Z,0
2016-12-28T04:09:54.799Z,0
2016-12-28T04:10:55.379Z,0
2016-12-28T04:11:54.957Z,0
2016-12-28T04:12:54.554Z,0
2016-12-28T04:13:54.765Z,0
2016-12-28T04:14:55.560Z,0
2016-12-28T04:15:55.528Z,0
2016-12-28T04:16:54.784Z,0
2016-12-28T04:17:55.850Z,0
2016-12-28T04:18:55.314Z,0
2016-12-28T04:19:55.109Z,0
2016-12-28T04:20:54.701Z,0
2016-12-28T04:21:54.685Z,0
2016-12-28T04:22:55.017Z,0
2016-12-28T04:23:54.980Z,0
2016-12-28T04:24:54.679Z,0
2016-12-28T04:25:55.366Z,0
2016-12-28T04:26:55.621Z,0
2016-12-28T04:27:55.220Z,0
2016-12-28T04:28:56.416Z,0
2016-12-28T04:29:55.340Z,0
2016-12-28T04:30:55.864Z,0
2016-12-28T04:31:55.351Z,0
2016-12-28T04:32:54.961Z,0
2016-12-28T04:33:56.071Z,0
2016-12-28T04:34:55.809Z,0
2016-12-28T04:35:55.493Z,0
2016-12-28T04:36:55.749Z,0
2016-12-28T04:37:55.342Z,0
2016-12-28T04:38:55.366Z,0
2016-12-28T04:39:55.230Z,0
2016-12-28T04:40:55.394Z,0
2016-12-28T04:41:56.516Z,0
2016-12-28T04:42:56.237Z,0
2016-12-28T04:43:55.328Z,0
2016-12-28T04:44:55.570Z,0
2016-12-28T04:45:55.618Z,0
2016-12-28T04:46:55.344Z,0
2016-12-28T04:47:56.221Z,0
2016-12-28T04:48:55.181Z,0
2016-12-28T04:49:55.856Z,0
2016-12-28T04:50:55.818Z,0
2016-12-28T04:51:55.707Z,0
2016-12-28T04:52:56.538Z,0
2016-12-28T04:53:56.165Z,0
2016-12-28T04:54:55.682Z,0
2016-12-28T04:55:55.617Z,0
2016-12-28T04:56:55.478Z,0
2016-12-28T04:57:55.743Z,0
2016-12-28T04:58:55.542Z,0
2016-12-28T04:59:56.319Z,0
2016-12-28T05:00:56.063Z,0
2016-12-28T05:01:55.233Z,0
2016-12-28T05:02:55.567Z,0
2016-12-28T05:03:56.409Z,0
2016-12-28T05:04:56.376Z,0
2016-12-28T05:05:55.728Z,0
2016-12-28T05:06:55.534Z,0
2016-12-28T05:07:55.596Z,0
2016-12-28T05:08:55.178Z,0
2016-12-28T05:09:55.864Z,0
2016-12-28T05:10:56.991Z,0
2016-12-28T05:11:55.502Z,0
2016-12-28T05:12:56.553Z,0
2016-12-28T05:13:56.140Z,0
2016-12-28T05:14:56.273Z,0
2016-12-28T05:15:57.952Z,0
2016-12-28T05:16:55.933Z,0
2016-12-28T05:17:58.001Z,0
2016-12-28T05:18:56.865Z,0
2016-12-28T05:19:58.856Z,0
2016-12-28T05:20:57.350Z,0
2016-12-28T05:21:58.103Z,0
2016-12-28T05:22:57.820Z,0
2016-12-28T05:23:57.540Z,0
2016-12-28T05:24:58.582Z,0
2016-12-28T05:25:56.843Z,0
2016-12-28T05:26:57.596Z,0
2016-12-28T05:27:56.906Z,0
2016-12-28T05:28:56.997Z,0
2016-12-28T05:29:57.932Z,0
2016-12-28T05:30:57.839Z,0
2016-12-28T05:31:56.973Z,0
2016-12-28T05:32:58.777Z,0
2016-12-28T05:33:59.735Z,0
2016-12-28T05:34:57.223Z,0
2016-12-28T05:35:57.920Z,0
2016-12-28T05:36:56.920Z,0
2016-12-28T05:37:57.258Z,0
2016-12-28T05:38:57.899Z,0
2016-12-28T05:39:57.654Z,0
2016-12-28T05:40:58.164Z,0
2016-12-28T05:41:59.663Z,0
2016-12-28T05:42:58.896Z,0
2016-12-28T05:43:57.218Z,0
2016-12-28T05:44:59.004Z,0
2016-12-28T05:45:57.703Z,0
2016-12-28T05:46:58.496Z,0
2016-12-28T05:47:57.664Z,0
2016-12-28T05:48:57.172Z,0
2016-12-28T05:49:56.703Z,0
2016-12-28T05:50:57.579Z,0
2016-12-28T05:51:59.562Z,0
2016-12-28T05:52:57.712Z,0
2016-12-28T05:53:56.803Z,0
2016-12-28T05:54:59.538Z,0
2016-12-28T05:55:57.870Z,0
2016-12-28T05:56:58.084Z,0
2016-12-28T05:57:57.701Z,0
2016-12-28T05:58:57.873Z,0
2016-12-28T05:59:59.031Z,0
2016-12-28T06:00:58.136Z,0
2016-12-28T06:02:00.173Z,0
2016-12-28T06:02:58.176Z,0
2016-12-28T06:03:58.203Z,0
2016-12-28T06:04:57.926Z,0
2016-12-28T06:05:58.804Z,0
2016-12-28T06:06:57.820Z,0
2016-12-28T06:07:58.560Z,0
2016-12-28T06:08:58.056Z,0
2016-12-28T06:09:58.876Z,0
2016-12-28T06:10:58.565Z,0
2016-12-28T06:11:58.269Z,0
2016-12-28T06:12:58.925Z,0
2016-12-28T06:13:58.571Z,0
2016-12-28T06:14:59.722Z,0
2016-12-28T06:15:58.375Z,0
2016-12-28T06:16:57.749Z,0
2016-12-28T06:17:58.067Z,0
2016-12-28T06:18:57.810Z,0
2016-12-28T06:19:59.243Z,0
2016-12-28T06:27:59.540Z,0
2016-12-28T06:28:57.370Z,0
2016-12-28T06:29:58.970Z,0
2016-12-28T06:30:57.151Z,0
2016-12-28T06:31:57.287Z,0
2016-12-28T06:32:56.903Z,0
2016-12-28T06:34:01.177Z,0
2016-12-28T06:35:00.399Z,0
2016-12-28T06:35:57.063Z,0
2016-12-28T06:37:00.288Z,0
2016-12-28T06:37:58.896Z,0
2016-12-28T06:38:59.501Z,0
2016-12-28T06:39:59.236Z,0
2016-12-28T06:41:57.816Z,0
2016-12-28T06:42:58.153Z,0
2016-12-28T06:43:57.771Z,0
2016-12-28T06:44:58.209Z,0
2016-12-28T06:45:57.535Z,0
2016-12-28T06:46:57.690Z,0
2016-12-28T06:47:57.868Z,0
2016-12-28T06:48:57.278Z,0
2016-12-28T06:49:57.577Z,0
2016-12-28T06:50:57.516Z,0
2016-12-28T06:51:58.159Z,0
2016-12-28T06:52:59.106Z,0
2016-12-28T06:53:58.374Z,0
2016-12-28T06:54:59.111Z,4
2016-12-28T06:55:58.023Z,4
2016-12-28T06:56:59.004Z,4
2016-12-28T06:57:57.179Z,4
2016-12-28T06:58:58.644Z,4
2016-12-28T06:59:57.607Z,4
2016-12-28T07:00:58.420Z,4
2016-12-28T07:01:59.193Z,8
2016-12-28T07:02:59.126Z,8
2016-12-28T07:03:57.954Z,8
2016-12-28T07:04:57.326Z,12
2016-12-28T07:05:58.389Z,12
2016-12-28T07:06:59.105Z,20
2016-12-28T07:07:58.339Z,20
2016-12-28T07:08:58.549Z,24
2016-12-28T07:09:59.064Z,24
2016-12-28T07:10:57.888Z,24
2016-12-28T07:11:57.757Z,20
2016-12-28T07:12:58.266Z,24
2016-12-28T07:13:59.148Z,32
2016-12-28T07:14:58.398Z,32
2016-12-28T07:15:58.831Z,48
2016-12-28T07:16:58.230Z,64
2016-12-28T07:17:58.127Z,76
2016-12-28T07:18:58.973Z,80
2016-12-28T07:19:57.767Z,80
2016-12-28T07:20:57.973Z,76
2016-12-28T07:21:57.365Z,72
2016-12-28T07:22:58.400Z,68
2016-12-28T07:23:57.701Z,68
2016-12-28T07:24:58.276Z,80
2016-12-28T07:25:58.731Z,88
2016-12-28T07:26:58.219Z,84
2016-12-28T07:27:57.639Z,84
2016-12-28T07:28:58.530Z,88
2016-12-28T07:29:57.586Z,92
2016-12-28T07:30:59.096Z,92
2016-12-28T07:31:59.134Z,100
2016-12-28T07:32:59.705Z,112
2016-12-28T07:33:58.391Z,116
2016-12-28T07:34:59.545Z,120
2016-12-28T07:35:58.645Z,136
2016-12-28T07:36:58.836Z,132
2016-12-28T07:37:58.300Z,136
2016-12-28T07:38:59.236Z,148
2016-12-28T07:39:57.566Z,160
2016-12-28T07:40:59.433Z,176
2016-12-28T07:41:58.487Z,188
2016-12-28T07:42:58.555Z,212
2016-12-28T07:43:58.107Z,208
2016-12-28T07:44:59.752Z,208
2016-12-28T07:45:58.918Z,216
2016-12-28T07:46:57.985Z,236
2016-12-28T07:47:59.139Z,296
2016-12-28T07:48:59.543Z,300
2016-12-28T07:50:01.628Z,292
2016-12-28T07:50:59.462Z,312
2016-12-28T07:52:00.044Z,332
2016-12-28T07:53:00.154Z,316
2016-12-28T07:53:59.102Z,324
2016-12-28T07:54:58.529Z,340
2016-12-28T07:55:57.435Z,344
2016-12-28T07:57:58.104Z,336
2016-12-28T07:58:57.552Z,364
2016-12-28T07:59:57.687Z,352
2016-12-28T08:00:57.698Z,352
2016-12-28T08:01:57.875Z,380
2016-12-28T08:02:58.637Z,408
2016-12-28T08:03:58.926Z,440
2016-12-28T08:04:59.325Z,508
2016-12-28T08:05:58.228Z,540
2016-12-28T08:06:59.260Z,584
2016-12-28T08:07:58.245Z,608
2016-12-28T08:08:58.821Z,696
2016-12-28T08:09:58.626Z,752
2016-12-28T08:10:58.976Z,848
2016-12-28T08:11:58.617Z,960
2016-12-28T08:12:58.392Z,1012
2016-12-28T08:13:58.832Z,956
2016-12-28T08:14:58.410Z,896
2016-12-28T08:15:59.155Z,884
2016-12-28T08:16:57.785Z,836
2016-12-28T08:17:58.685Z,868
2016-12-28T08:18:59.105Z,836
2016-12-28T08:19:58.543Z,788
2016-12-28T08:20:58.765Z,796
2016-12-28T08:21:58.503Z,780
2016-12-28T08:22:58.244Z,696
2016-12-28T08:23:59.624Z,676
2016-12-28T08:24:59.349Z,732
2016-12-28T08:25:58.414Z,904
2016-12-28T08:26:58.650Z,1000
2016-12-28T08:27:58.843Z,1060
2016-12-28T08:28:58.543Z,1088
2016-12-28T08:29:58.215Z,1176
2016-12-28T08:31:00.920Z,1164
2016-12-28T08:31:59.009Z,1112
2016-12-28T08:32:58.302Z,1136
2016-12-28T08:33:58.626Z,1192
2016-12-28T08:34:58.670Z,1300
2016-12-28T08:35:58.912Z,1384
2016-12-28T08:36:58.638Z,1452
2016-12-28T08:37:59.280Z,1508
2016-12-28T08:38:58.227Z,1532
2016-12-28T08:39:59.180Z,1468
2016-12-28T08:40:58.259Z,1452
2016-12-28T08:41:58.651Z,1696
2016-12-28T08:42:58.555Z,2184
2016-12-28T08:43:59.490Z,2428
2016-12-28T08:44:58.991Z,2496
2016-12-28T08:45:59.717Z,2668
2016-12-28T08:46:58.462Z,2760
2016-12-28T08:48:00.579Z,2828
2016-12-28T08:48:58.868Z,2872
2016-12-28T08:49:59.520Z,2872
2016-12-28T08:50:59.652Z,2972
2016-12-28T08:51:58.498Z,3264
2016-12-28T08:52:58.708Z,3580
2016-12-28T08:53:58.879Z,3708
2016-12-28T08:54:59.295Z,3636
2016-12-28T08:55:59.602Z,3536
2016-12-28T08:56:59.207Z,3456
2016-12-28T08:57:59.577Z,3464
2016-12-28T08:58:58.518Z,3408
2016-12-28T08:59:58.905Z,3408
2016-12-28T09:00:58.514Z,3452
2016-12-28T09:01:59.018Z,3520
2016-12-28T09:02:58.734Z,3732
2016-12-28T09:03:58.706Z,3892
2016-12-28T09:04:58.910Z,3820
2016-12-28T09:05:59.263Z,3740
2016-12-28T09:06:59.137Z,3704
2016-12-28T09:07:59.865Z,3704
2016-12-28T09:09:00.120Z,3776
2016-12-28T09:09:59.108Z,3948
2016-12-28T09:10:59.809Z,4100
2016-12-28T09:11:58.920Z,4200
2016-12-28T09:13:00.575Z,4168
2016-12-28T09:14:01.279Z,4124
2016-12-28T09:14:59.170Z,4188
2016-12-28T09:15:59.092Z,4248
2016-12-28T09:17:00.553Z,4236
2016-12-28T09:18:00.987Z,4196
2016-12-28T09:18:59.664Z,4168
2016-12-28T09:20:00.772Z,4140
2016-12-28T09:21:00.211Z,4032
2016-12-28T09:21:59.021Z,3876
2016-12-28T09:22:59.003Z,3840
2016-12-28T09:23:59.453Z,3856
2016-12-28T09:24:59.171Z,3824
2016-12-28T09:25:59.769Z,3884
2016-12-28T09:26:59.471Z,4004
2016-12-28T09:27:59.665Z,4216
2016-12-28T09:28:58.915Z,4400
2016-12-28T09:29:59.210Z,4520
2016-12-28T09:30:59.733Z,4592
2016-12-28T09:31:59.412Z,4680
2016-12-28T09:32:59.699Z,4688
2016-12-28T09:33:59.474Z,4600
2016-12-28T09:34:59.779Z,4712
2016-12-28T09:35:59.459Z,4860
2016-12-28T09:36:59.796Z,4868
2016-12-28T09:37:59.643Z,4792
2016-12-28T09:38:59.328Z,4656
2016-12-28T09:39:59.511Z,4532
2016-12-28T09:41:00.047Z,4476
2016-12-28T09:41:59.322Z,4436
2016-12-28T09:43:00.181Z,4516
2016-12-28T09:43:59.891Z,4680
2016-12-28T09:45:01.052Z,4732
2016-12-28T09:46:00.370Z,4744
2016-12-28T09:46:59.513Z,4868
2016-12-28T09:47:59.712Z,4944
2016-12-28T09:49:01.283Z,4968
2016-12-28T09:50:00.325Z,4952
2016-12-28T09:50:59.658Z,5024
2016-12-28T09:52:00.578Z,4952
2016-12-28T09:52:59.757Z,4784
2016-12-28T09:53:59.735Z,4548
2016-12-28T09:55:00.272Z,4256
2016-12-28T09:56:00.433Z,4120
2016-12-28T09:57:00.780Z,4020
2016-12-28T09:57:59.846Z,3972
2016-12-28T09:59:00.885Z,4036
2016-12-28T09:59:59.872Z,4072
2016-12-28T10:00:59.788Z,4072
2016-12-28T10:01:59.313Z,4072
2016-12-28T10:03:00.830Z,4080
2016-12-28T10:03:59.838Z,4180
2016-12-28T10:04:59.845Z,4284
2016-12-28T10:05:59.400Z,4332
2016-12-28T10:07:00.159Z,4412
2016-12-28T10:07:59.861Z,4548
2016-12-28T10:08:59.366Z,4644
2016-12-28T10:10:00.037Z,4540
2016-12-28T10:11:00.559Z,4436
2016-12-28T10:11:59.671Z,4568
2016-12-28T10:13:00.371Z,4748
2016-12-28T10:14:00.150Z,4628
2016-12-28T10:15:00.272Z,4488
2016-12-28T10:15:59.980Z,4384
2016-12-28T10:16:59.824Z,4388
2016-12-28T10:18:00.985Z,4352
2016-12-28T10:19:01.079Z,4416
2016-12-28T10:20:00.914Z,4468
2016-12-28T10:21:00.854Z,4632
2016-12-28T10:22:01.383Z,4540
2016-12-28T10:23:00.032Z,4244
2016-12-28T10:24:00.540Z,3904
2016-12-28T10:25:00.803Z,3624
2016-12-28T10:26:01.639Z,3484
2016-12-28T10:27:00.462Z,3524
2016-12-28T10:28:01.207Z,3648
2016-12-28T10:29:00.924Z,3796
2016-12-28T10:30:01.127Z,4024
2016-12-28T10:31:00.298Z,4180
2016-12-28T10:32:00.535Z,4424
2016-12-28T10:33:01.144Z,4708
2016-12-28T10:34:00.707Z,4768
2016-12-28T10:35:00.117Z,4928
2016-12-28T10:36:01.344Z,5168
2016-12-28T10:37:01.904Z,5588
2016-12-28T10:38:01.484Z,6144
2016-12-28T10:39:00.253Z,6652
2016-12-28T10:40:00.449Z,7460
2016-12-28T10:40:59.782Z,7808
2016-12-28T10:42:01.232Z,7720
2016-12-28T10:43:01.009Z,7784
2016-12-28T10:44:00.259Z,7484
2016-12-28T10:45:00.509Z,6916
2016-12-28T10:46:00.407Z,6452
2016-12-28T10:47:01.073Z,6172
2016-12-28T10:48:01.239Z,5720
2016-12-28T10:49:00.722Z,5316
2016-12-28T10:50:00.755Z,5364
2016-12-28T10:51:00.935Z,5492
2016-12-28T10:52:00.442Z,5384
2016-12-28T10:53:00.529Z,5364
2016-12-28T10:54:00.609Z,5352
2016-12-28T10:55:01.384Z,5168
2016-12-28T10:56:01.286Z,5024
2016-12-28T10:57:00.971Z,5036
2016-12-28T10:58:01.134Z,5124
2016-12-28T10:59:00.380Z,5056
2016-12-28T11:00:01.129Z,4868
2016-12-28T11:01:01.368Z,4684
2016-12-28T11:02:01.112Z,4476
2016-12-28T11:03:00.575Z,4444
2016-12-28T11:04:01.838Z,4576
2016-12-28T11:05:01.081Z,5048
2016-12-28T11:06:00.572Z,5296
2016-12-28T11:07:01.517Z,5260
2016-12-28T11:08:00.469Z,5208
2016-12-28T11:09:01.169Z,5152
2016-12-28T11:10:01.321Z,5508
2016-12-28T11:11:01.489Z,5920
2016-12-28T11:12:01.405Z,6040
2016-12-28T11:13:01.309Z,5748
2016-12-28T11:14:00.841Z,5320
2016-12-28T11:15:01.268Z,5320
2016-12-28T11:16:01.238Z,5456
2016-12-28T11:17:01.514Z,5640
2016-12-28T11:18:01.695Z,5748
2016-12-28T11:19:01.047Z,5668
2016-12-28T11:20:00.482Z,5444
2016-12-28T11:21:00.752Z,5112
2016-12-28T11:22:01.461Z,4716
2016-12-28T11:23:01.141Z,4252
2016-12-28T11:24:00.780Z,3920
2016-12-28T11:25:01.741Z,3948
2016-12-28T11:26:01.004Z,4008
2016-12-28T11:27:00.941Z,3928
2016-12-28T11:28:00.927Z,3968
2016-12-28T11:29:00.656Z,4180
2016-12-28T11:30:02.156Z,4440
2016-12-28T11:31:00.957Z,4584
2016-12-28T11:32:01.287Z,4560
2016-12-28T11:33:01.471Z,4584
2016-12-28T11:34:01.756Z,4936
2016-12-28T11:35:02.074Z,5328
2016-12-28T11:36:01.156Z,5440
2016-12-28T11:37:02.092Z,5416
2016-12-28T11:38:01.213Z,5480
2016-12-28T11:39:00.742Z,5560
2016-12-28T11:40:01.854Z,5640
2016-12-28T11:41:01.808Z,5644
2016-12-28T11:42:02.060Z,5568
2016-12-28T11:43:01.470Z,5632
2016-12-28T11:44:01.493Z,5696
2016-12-28T11:45:01.734Z,5608
2016-12-28T11:46:01.261Z,5420
2016-12-28T11:47:01.384Z,5248
2016-12-28T11:48:02.148Z,5220
2016-12-28T11:49:01.987Z,5260
2016-12-28T11:50:02.243Z,5264
2016-12-28T11:51:01.469Z,5272
2016-12-28T11:52:01.836Z,5260
2016-12-28T11:53:01.537Z,5200
2016-12-28T11:54:01.216Z,5128
2016-12-28T11:55:00.847Z,5104
2016-12-28T11:56:01.859Z,5152
2016-12-28T11:57:02.232Z,5192
2016-12-28T11:58:01.435Z,5152
2016-12-28T11:59:02.070Z,5128
2016-12-28T12:00:02.647Z,5108
2016-12-28T12:01:01.754Z,5076
2016-12-28T12:02:02.066Z,5032
2016-12-28T12:03:01.153Z,5008
2016-12-28T12:04:01.299Z,4984
2016-12-28T12:05:01.552Z,4944
2016-12-28T12:06:01.478Z,4900
2016-12-28T12:07:01.939Z,4816
2016-12-28T12:08:01.234Z,4736
2016-12-28T12:09:01.307Z,4648
2016-12-28T12:10:01.444Z,4636
2016-12-28T12:11:01.311Z,4660
2016-12-28T12:12:01.911Z,4680
2016-12-28T12:13:02.471Z,4688
2016-12-28T12:14:02.068Z,4616
2016-12-28T12:15:01.895Z,4556
2016-12-28T12:16:01.196Z,4528
2016-12-28T12:17:02.441Z,4516
2016-12-28T12:18:02.836Z,4548
2016-12-28T12:19:02.208Z,4628
2016-12-28T12:20:02.240Z,4692
2016-12-28T12:21:02.216Z,4664
2016-12-28T12:22:02.696Z,4572
2016-12-28T12:23:01.626Z,4500
2016-12-28T12:24:02.952Z,4580
2016-12-28T12:25:01.667Z,4688
2016-12-28T12:26:02.495Z,4704
2016-12-28T12:27:04.146Z,4624
2016-12-28T12:28:03.714Z,4588
2016-12-28T12:29:04.019Z,4544
2016-12-28T12:30:02.497Z,4372
2016-12-28T12:31:02.824Z,4220
2016-12-28T12:32:04.278Z,4156
2016-12-28T12:33:03.650Z,4168
2016-12-28T12:34:03.387Z,4208
2016-12-28T12:35:03.700Z,4176
2016-12-28T12:36:03.740Z,4096
2016-12-28T12:37:02.329Z,4044
2016-12-28T12:38:03.067Z,3952
2016-12-28T12:39:02.791Z,3796
2016-12-28T12:40:03.503Z,3652
2016-12-28T12:41:02.188Z,3612
2016-12-28T12:42:02.357Z,3628
2016-12-28T12:43:03.351Z,3676
2016-12-28T12:44:02.876Z,3740
2016-12-28T12:45:02.659Z,3716
2016-12-28T12:46:03.145Z,3616
2016-12-28T12:47:02.544Z,3492
2016-12-28T12:48:02.761Z,3428
2016-12-28T12:49:02.801Z,3436
2016-12-28T12:50:01.992Z,3480
2016-12-28T12:51:02.419Z,3568
2016-12-28T12:52:03.116Z,3588
2016-12-28T12:53:03.324Z,3432
2016-12-28T12:54:02.787Z,3292
2016-12-28T12:55:03.227Z,3272
2016-12-28T12:56:02.632Z,3284
2016-12-28T12:57:02.780Z,3228
2016-12-28T12:58:02.064Z,3116
2016-12-28T12:59:04.330Z,3032
2016-12-28T13:00:03.034Z,3012
2016-12-28T13:01:02.766Z,2960
2016-12-28T13:02:02.301Z,2868
2016-12-28T13:03:02.177Z,2820
2016-12-28T13:04:03.257Z,2944
2016-12-28T13:05:03.524Z,3156
2016-12-28T13:06:03.139Z,3288
2016-12-28T13:07:02.715Z,3244
2016-12-28T13:08:03.341Z,3088
2016-12-28T13:09:03.691Z,3012
2016-12-28T13:10:03.064Z,3016
2016-12-28T13:11:02.320Z,3080
2016-12-28T13:12:03.244Z,3164
2016-12-28T13:13:03.442Z,3272
2016-12-28T13:14:03.089Z,3300
2016-12-28T13:15:02.995Z,3288
2016-12-28T13:16:02.920Z,3264
2016-12-28T13:17:02.935Z,3252
2016-12-28T13:18:03.538Z,3176
2016-12-28T13:19:03.197Z,3096
2016-12-28T13:20:03.327Z,3068
2016-12-28T13:21:03.142Z,3092
2016-12-28T13:22:02.386Z,3136
2016-12-28T13:23:03.740Z,3204
2016-12-28T13:24:02.813Z,3204
2016-12-28T13:25:03.338Z,3180
2016-12-28T13:26:03.613Z,3200
2016-12-28T13:27:03.823Z,3224
2016-12-28T13:28:02.825Z,3204
2016-12-28T13:29:03.296Z,3112
2016-12-28T13:30:03.467Z,2992
2016-12-28T13:31:02.793Z,2948
2016-12-28T13:32:03.050Z,2964
2016-12-28T13:33:03.689Z,2968
2016-12-28T13:34:03.260Z,2956
2016-12-28T13:35:03.730Z,2920
2016-12-28T13:36:03.906Z,2832
2016-12-28T13:37:04.032Z,2760
2016-12-28T13:38:03.184Z,2708
2016-12-28T13:39:03.156Z,2648
2016-12-28T13:40:03.813Z,2564
2016-12-28T13:41:04.020Z,2528
2016-12-28T13:42:03.103Z,2540
2016-12-28T13:43:04.083Z,2472
2016-12-28T13:44:03.345Z,2412
2016-12-28T13:45:03.132Z,2348
2016-12-28T13:46:03.477Z,2356
2016-12-28T13:47:03.414Z,2376
2016-12-28T13:48:03.150Z,2356
2016-12-28T13:49:03.097Z,2352
2016-12-28T13:50:03.948Z,2344
2016-12-28T13:51:04.706Z,2300
2016-12-28T13:52:03.161Z,2296
2016-12-28T13:53:03.589Z,2268
2016-12-28T13:54:03.177Z,2196
2016-12-28T13:55:04.043Z,2152
2016-12-28T13:56:03.271Z,2132
2016-12-28T13:57:04.706Z,2100
2016-12-28T13:58:03.460Z,2056
2016-12-28T13:59:03.806Z,1984
2016-12-28T14:00:04.714Z,1940
2016-12-28T14:01:03.858Z,1912
2016-12-28T14:02:04.712Z,1900
2016-12-28T14:03:04.015Z,1896
2016-12-28T14:04:03.327Z,1876
2016-12-28T14:05:03.808Z,1840
2016-12-28T14:06:04.083Z,1808
2016-12-28T14:07:03.451Z,1740
2016-12-28T14:08:03.637Z,1656
2016-12-28T14:09:04.120Z,1588
2016-12-28T14:10:04.837Z,1568
2016-12-28T14:11:04.086Z,1568
2016-12-28T14:12:03.671Z,1544
2016-12-28T14:13:03.756Z,1520